Nur fliegen ist schöner ....

Willkommen beim Flugservice Bautzen GmbH

Wir sind eine nach europäischen Richtlinien zugelassene Flugschule und lizenziertes Luftfahrtunternehmen. Bei uns können sie nicht nur Rundflüge über die Oberlausitz oder Sachsen buchen, sondern in unserer Flugschule selber das Fliegen erlernen. Erfahrene Fluglehrer stehen Ihnen dabei zur Seite.

Wir bieten Ihnen außerdem spezielle Flüge zur Vermessung oder Fotoflüge für Luftbildaufnahmen an. In Zusammenarbeit mit dem Fallschirmsportclub Dresden und dem Cottbuser Fallschirmsportclub setzen wir am Flugplatz Bautzen und Neuhausen Fallschirmspringer ab.
Schauen Sie sich in Ruhe bei uns um und wenn Sie Fragen haben oder weitere Informationen benötigen, scheuen Sie sich nicht Kontakt mit uns aufzunehmen.

Gutscheine für Rundflüge und Tandemsprünge können Sie ganz leicht auch online in unserem Shop erwerben.

Terminkalender

Letzter Monat März 2021 Nächster Monat
Mo Di Mi Do Fr Sa So
week 9 1 2 3 4 5 6 7
week 10 8 9 10 11 12 13 14
week 11 15 16 17 18 19 20 21
week 12 22 23 24 25 26 27 28
week 13 29 30 31

Flugwetterinfo

[Quelle: ADDS]
METAR
EDDC 061350Z 28011KT 240V320 9999 FEW048 05/M06 Q1030 NOSIG =
EDDC 061100Z 0612/0712 30010KT 9999 FEW030 BECMG 0616/0618 25004KT BECMG 0708/0711 27009KT
TAF
EDDC 061100Z 0612/0712 30010KT 9999 FEW030 BECMG 0616/0618 25004KT BECMG 0708/0711 27009KT =
SR / SS: 05:35 / 16:51 UTC (EDAB Flugplatz Bautzen 2021-03-06)

Öffnungszeiten

des Flugplatzes Bautzen erfahren Sie hier:

flugplatz bautzen logo
Flugservice Bautzen GmbH, Kornmarkt 34, 02625 Bautzen  Telefon: +49 (3591) 211105, Telefax: +49 (3591) 274512, E-Mail:  flugservice(at)fsbautzen.de